Time;durP1;ratioP1;P1;durP2;ratioP2;P2;SDS_P1;SDS_P2;PMS_P1;PMS_P2;Temp;Humidity;BMP_temperature;BMP_pressure;BME280_temperature;BME280_humidity;BME280_pressure;Samples;Min_cycle;Max_cycle;Signal;HPM_P1;HPM_P2
2021/09/22 09:32:19;;;;;;;20.77;13.57;;;14.00;99.90;;;;;;5070659;28;20590;-81
2021/09/22 09:35:12;;;;;;;22.70;14.05;;;14.10;99.90;;;;;;5070678;28;20225;-81
2021/09/22 09:37:44;;;;;;;21.27;12.73;;;14.10;99.90;;;;;;5070634;28;20172;-81
2021/09/22 09:40:27;;;;;;;18.55;13.27;;;14.20;99.90;;;;;;5069250;28;20179;-82
2021/09/22 09:43:12;;;;;;;21.02;13.13;;;14.20;99.90;;;;;;5070550;28;20179;-81
2021/09/22 09:45:42;;;;;;;19.55;12.02;;;14.30;99.90;;;;;;5070569;28;20207;-82
2021/09/22 09:48:11;;;;;;;18.80;13.02;;;14.40;99.90;;;;;;5070550;28;20171;-82
2021/09/22 09:50:53;;;;;;;19.45;13.57;;;14.40;99.90;;;;;;5069027;28;20203;-82
2021/09/22 09:53:31;;;;;;;18.50;12.60;;;14.40;99.90;;;;;;5070403;28;20173;-82
2021/09/22 09:56:00;;;;;;;25.75;13.27;;;14.50;99.90;;;;;;5069810;28;20637;-82
2021/09/22 09:58:40;;;;;;;15.18;10.70;;;14.50;99.90;;;;;;5070095;28;20189;-82
2021/09/22 10:01:05;;;;;;;14.00;10.88;;;14.60;99.90;;;;;;5070086;28;20168;-82
2021/09/22 10:03:31;;;;;;;17.85;11.48;;;14.70;99.90;;;;;;5070101;28;20180;-82
2021/09/22 10:05:58;;;;;;;14.93;10.98;;;14.70;99.90;;;;;;5070071;28;20169;-82
2021/09/22 10:08:26;;;;;;;16.55;11.45;;;14.80;99.90;;;;;;5070054;28;20192;-82
2021/09/22 10:10:55;;;;;;;17.98;11.77;;;14.80;99.90;;;;;;5069875;28;20293;-82
2021/09/22 10:13:22;;;;;;;13.48;11.05;;;14.80;99.90;;;;;;5068709;28;20179;-82
2021/09/22 10:15:50;;;;;;;18.10;11.20;;;14.90;99.90;;;;;;5069884;28;20517;-82
2021/09/22 10:18:20;;;;;;;13.85;10.38;;;15.00;99.90;;;;;;5069902;28;20165;-82
2021/09/22 10:20:47;;;;;;;11.23;9.65;;;15.00;99.90;;;;;;5069723;28;20168;-81
2021/09/22 10:23:14;;;;;;;14.13;10.23;;;15.20;99.90;;;;;;5069707;28;20527;-82
2021/09/22 10:25:41;;;;;;;15.57;10.13;;;15.20;99.90;;;;;;5069664;28;20211;-82
2021/09/22 10:28:08;;;;;;;16.58;10.63;;;15.20;99.90;;;;;;5068246;28;20263;-82
2021/09/22 10:30:38;;;;;;;15.13;10.02;;;15.30;99.90;;;;;;5069272;28;20748;-82
2021/09/22 10:33:08;;;;;;;13.32;9.55;;;15.30;99.90;;;;;;5069489;28;20191;-82
2021/09/22 10:35:41;;;;;;;14.02;9.32;;;15.30;99.90;;;;;;5069457;28;20173;-82
2021/09/22 10:38:19;;;;;;;14.18;10.00;;;15.30;99.90;;;;;;5068104;28;20512;-82
2021/09/22 10:40:52;;;;;;;16.13;11.52;;;15.40;99.90;;;;;;5069243;28;20168;-82
2021/09/22 10:43:23;;;;;;;11.30;8.27;;;15.40;99.90;;;;;;5057102;28;20176;-82
2021/09/22 10:46:10;;;;;;;13.25;10.20;;;15.40;99.90;;;;;;5056045;28;20248;-82
2021/09/22 10:48:50;;;;;;;17.33;10.63;;;15.30;99.90;;;;;;5056019;28;20557;-82
2021/09/22 10:51:37;;;;;;;12.90;9.75;;;15.40;99.90;;;;;;5055917;28;20279;-82
2021/09/22 10:54:10;;;;;;;13.25;10.00;;;15.40;99.90;;;;;;5054716;28;20172;-82
2021/09/22 10:56:47;;;;;;;16.15;10.40;;;15.40;99.90;;;;;;5055904;28;20169;-82
2021/09/22 10:59:25;;;;;;;13.93;9.75;;;15.60;99.90;;;;;;5055798;28;20238;-82
2021/09/22 11:01:51;;;;;;;11.98;9.38;;;15.60;99.90;;;;;;5055742;28;20247;-82
2021/09/22 11:04:17;;;;;;;22.33;10.70;;;15.60;99.90;;;;;;5055690;28;20204;-83
2021/09/22 11:06:43;;;;;;;13.60;10.48;;;15.60;99.90;;;;;;5054383;28;20175;-82
2021/09/22 11:09:13;;;;;;;13.25;9.80;;;15.60;99.90;;;;;;5055655;28;20169;-82
2021/09/22 11:12:00;;;;;;;13.52;9.70;;;15.70;99.90;;;;;;5055558;28;20209;-82
2021/09/22 11:14:42;;;;;;;11.48;10.25;;;15.70;99.90;;;;;;5055639;28;20520;-82
2021/09/22 11:17:14;;;;;;;14.98;11.63;;;15.70;99.90;;;;;;5054210;28;20252;-82
2021/09/22 11:19:42;;;;;;;13.07;10.75;;;15.70;99.90;;;;;;5054207;28;20173;-82
2021/09/22 11:22:15;;;;;;;15.85;11.55;;;15.70;99.90;;;;;;5055382;28;20169;-82
2021/09/22 11:24:41;;;;;;;17.98;10.82;;;15.70;99.90;;;;;;5055340;28;20161;-82
2021/09/22 11:27:11;;;;;;;16.38;10.85;;;15.80;99.90;;;;;;5055295;28;20243;-82
2021/09/22 11:29:51;;;;;;;17.98;10.93;;;15.80;99.90;;;;;;5055319;28;20176;-82
2021/09/22 11:32:36;;;;;;;15.93;10.85;;;15.80;99.90;;;;;;5054084;28;20646;-82
2021/09/22 11:35:06;;;;;;;16.23;11.10;;;15.90;99.90;;;;;;5055129;28;20168;-82
2021/09/22 11:37:38;;;;;;;14.68;11.70;;;16.00;99.90;;;;;;5055109;28;20169;-83
2021/09/22 11:40:07;;;;;;;14.98;11.02;;;16.00;99.90;;;;;;5055072;28;20181;-82
2021/09/22 11:42:33;;;;;;;15.32;10.70;;;16.10;99.90;;;;;;5053717;28;20268;-82
2021/09/22 11:44:58;;;;;;;21.55;11.88;;;16.20;99.90;;;;;;5055038;28;20260;-82
2021/09/22 11:47:24;;;;;;;17.33;11.35;;;16.20;99.90;;;;;;5054883;28;20260;-82
2021/09/22 11:49:50;;;;;;;14.70;10.57;;;16.30;99.90;;;;;;5054994;28;20177;-82
2021/09/22 11:52:22;;;;;;;15.13;11.13;;;16.40;99.90;;;;;;5054790;28;20169;-82
2021/09/22 11:54:54;;;;;;;13.65;10.80;;;16.40;99.90;;;;;;5053768;28;20164;-83
2021/09/22 11:57:20;;;;;;;20.48;11.63;;;16.40;99.90;;;;;;5054593;28;20187;-81
2021/09/22 11:59:48;;;;;;;13.55;10.32;;;16.50;99.90;;;;;;5054692;28;20219;-82
2021/09/22 12:02:15;;;;;;;14.65;10.95;;;16.50;99.90;;;;;;5054637;28;20169;-82
2021/09/22 12:04:44;;;;;;;19.15;10.85;;;16.60;99.90;;;;;;5054620;28;20161;-82
2021/09/22 12:07:10;;;;;;;16.58;11.05;;;16.60;99.90;;;;;;5054533;28;20169;-83
2021/09/22 12:09:44;;;;;;;16.85;10.68;;;16.60;99.90;;;;;;5054517;28;20214;-82
2021/09/22 12:12:14;;;;;;;16.02;10.10;;;16.70;99.90;;;;;;5054454;28;20255;-82
2021/09/22 12:14:52;;;;;;;17.63;10.05;;;16.80;99.90;;;;;;5054423;28;20173;-82
2021/09/22 12:17:21;;;;;;;21.02;11.45;;;16.90;99.90;;;;;;5054400;28;20168;-82
2021/09/22 12:19:48;;;;;;;13.15;10.25;;;16.90;99.90;;;;;;5054314;28;20196;-82
2021/09/22 12:22:19;;;;;;;15.35;10.00;;;16.90;99.90;;;;;;5054195;28;20626;-82
2021/09/22 12:24:45;;;;;;;16.92;11.82;;;16.90;99.90;;;;;;5054227;28;20646;-82
2021/09/22 12:27:20;;;;;;;18.38;11.65;;;16.80;99.90;;;;;;5054412;28;20165;-82
2021/09/22 12:29:56;;;;;;;14.85;9.90;;;16.80;99.90;;;;;;5053773;28;20251;-81
2021/09/22 12:32:27;;;;;;;17.65;11.57;;;16.90;99.90;;;;;;5054065;28;20169;-82
2021/09/22 12:34:53;;;;;;;12.73;10.15;;;17.00;99.90;;;;;;5053970;28;20192;-82
2021/09/22 12:37:25;;;;;;;17.33;11.55;;;17.10;99.90;;;;;;5053903;28;20172;-82
2021/09/22 12:40:05;;;;;;;18.20;10.50;;;17.10;99.90;;;;;;5054116;28;20161;-82
2021/09/22 12:42:37;;;;;;;13.43;10.95;;;17.20;99.90;;;;;;5053933;28;20169;-82
2021/09/22 12:45:05;;;;;;;18.52;10.32;;;17.30;99.90;;;;;;5052548;28;20259;-82
2021/09/22 12:47:32;;;;;;;16.73;10.32;;;17.40;99.90;;;;;;5053747;28;20165;-82
2021/09/22 12:50:17;;;;;;;13.98;10.35;;;17.40;99.90;;;;;;5053636;28;20172;-82
2021/09/22 12:52:44;;;;;;;12.25;10.27;;;17.60;99.90;;;;;;5053863;28;20169;-82
2021/09/22 12:55:19;;;;;;;14.55;10.20;;;17.60;99.90;;;;;;5053634;28;20585;-82
2021/09/22 12:57:46;;;;;;;13.23;9.65;;;17.70;99.90;;;;;;5052320;28;20188;-82
2021/09/22 13:00:36;;;;;;;13.55;8.80;;;17.80;99.90;;;;;;5053486;28;20173;-82
2021/09/22 13:03:26;;;;;;;15.18;10.23;;;17.90;99.90;;;;;;5053488;28;20200;-82
2021/09/22 13:05:55;;;;;;;12.73;9.02;;;18.00;99.90;;;;;;5053309;28;20165;-83
2021/09/22 13:08:24;;;;;;;12.43;9.68;;;18.10;99.90;;;;;;5053443;28;20275;-83
2021/09/22 13:11:04;;;;;;;10.60;9.13;;;18.10;99.90;;;;;;5053321;28;20228;-82
2021/09/22 13:13:51;;;;;;;9.18;8.18;;;18.30;99.90;;;;;;5052153;28;20165;-82
2021/09/22 13:16:26;;;;;;;10.60;8.85;;;18.40;99.90;;;;;;5053381;28;20244;-82
2021/09/22 13:18:53;;;;;;;13.20;8.68;;;18.50;99.90;;;;;;5053774;28;20176;-82
2021/09/22 13:21:19;;;;;;;13.77;8.13;;;18.50;99.90;;;;;;5053260;28;20161;-83
2021/09/22 13:23:48;;;;;;;10.38;8.00;;;18.60;99.90;;;;;;5051991;28;20267;-82
2021/09/22 13:26:14;;;;;;;9.57;7.88;;;18.70;99.90;;;;;;5053258;28;20165;-83
2021/09/22 13:28:41;;;;;;;11.02;8.35;;;18.70;99.90;;;;;;5053174;28;20175;-82
2021/09/22 13:31:07;;;;;;;10.48;8.02;;;18.70;99.90;;;;;;5052907;28;20225;-83
2021/09/22 13:33:34;;;;;;;11.90;8.20;;;18.70;99.90;;;;;;5051807;28;20175;-82
2021/09/22 13:36:00;;;;;;;8.27;7.28;;;18.70;99.90;;;;;;5053096;28;20161;-82
2021/09/22 13:38:26;;;;;;;10.77;7.30;;;18.70;99.90;;;;;;5053104;28;20169;-82
2021/09/22 13:40:52;;;;;;;7.60;6.70;;;18.90;99.90;;;;;;5053058;28;20266;-82
2021/09/22 13:43:18;;;;;;;11.30;8.45;;;19.00;99.90;;;;;;5051762;28;20255;-82
2021/09/22 13:45:44;;;;;;;7.93;7.13;;;19.10;99.90;;;;;;5051792;28;20634;-82
2021/09/22 13:48:10;;;;;;;10.30;6.63;;;19.20;99.90;;;;;;5051653;28;20184;-82
2021/09/22 13:50:36;;;;;;;13.35;7.78;;;19.20;99.90;;;;;;5052965;28;20187;-82
2021/09/22 13:53:02;;;;;;;9.00;7.28;;;19.10;99.90;;;;;;5052991;28;20196;-82
2021/09/22 13:55:28;;;;;;;7.70;7.00;;;19.10;99.90;;;;;;5051720;28;20634;-82
2021/09/22 13:57:54;;;;;;;8.07;6.57;;;19.30;99.90;;;;;;5052896;28;20193;-82
2021/09/22 14:00:19;;;;;;;10.70;7.85;;;19.30;99.90;;;;;;5052662;28;20575;-83
2021/09/22 14:02:45;;;;;;;8.05;7.07;;;19.50;99.90;;;;;;5052829;28;20165;-82
2021/09/22 14:05:10;;;;;;;7.85;7.15;;;19.50;99.90;;;;;;5052906;28;20582;-83
2021/09/22 14:07:36;;;;;;;7.22;6.53;;;19.40;99.90;;;;;;5051577;28;20172;-82
2021/09/22 14:10:03;;;;;;;11.13;7.90;;;19.40;99.90;;;;;;5051579;28;20207;-82
2021/09/22 14:12:28;;;;;;;9.50;6.53;;;19.40;99.90;;;;;;5052807;28;20169;-82
2021/09/22 14:14:59;;;;;;;9.20;7.30;;;19.40;99.90;;;;;;5052930;28;20529;-83
2021/09/22 14:17:25;;;;;;;11.93;6.78;;;19.50;99.90;;;;;;5054119;28;20247;-83
2021/09/22 14:19:51;;;;;;;9.73;6.97;;;19.50;99.90;;;;;;5056559;28;20592;-83
2021/09/22 14:22:17;;;;;;;10.98;6.97;;;19.60;99.90;;;;;;5056595;28;20252;-83
2021/09/22 14:24:42;;;;;;;7.53;6.40;;;19.80;99.90;;;;;;5056439;28;20650;-82
2021/09/22 14:27:08;;;;;;;9.35;6.72;;;19.80;99.90;;;;;;5056525;28;20164;-83
2021/09/22 14:29:34;;;;;;;9.90;5.68;;;20.00;99.90;;;;;;5056377;28;20573;-83
2021/09/22 14:31:59;;;;;;;6.82;6.20;;;20.10;99.90;;;;;;5056077;28;20224;-83
2021/09/22 14:34:25;;;;;;;7.97;7.18;;;20.30;99.90;;;;;;5055145;28;20176;-82
2021/09/22 14:36:50;;;;;;;11.50;7.45;;;20.40;99.90;;;;;;5056305;28;20650;-83
2021/09/22 14:39:19;;;;;;;9.55;6.57;;;20.40;99.90;;;;;;5056280;28;20255;-83
2021/09/22 14:41:46;;;;;;;7.43;6.65;;;20.50;99.90;;;;;;5056250;28;20219;-83
2021/09/22 14:44:11;;;;;;;9.07;6.63;;;20.70;99.90;;;;;;5056168;28;20164;-82
2021/09/22 14:46:37;;;;;;;7.90;7.18;;;20.70;99.90;;;;;;5054739;28;20245;-83
2021/09/22 14:49:03;;;;;;;13.73;7.13;;;20.80;99.90;;;;;;5056050;28;20168;-83
2021/09/22 14:51:28;;;;;;;8.32;7.47;;;20.80;99.90;;;;;;5054762;28;20177;-83
2021/09/22 14:53:54;;;;;;;8.85;6.93;;;20.80;99.90;;;;;;5054733;28;20203;-83
2021/09/22 14:56:19;;;;;;;7.68;6.95;;;20.70;99.90;;;;;;5055938;28;20176;-83
2021/09/22 14:58:45;;;;;;;11.63;7.68;;;20.60;99.90;;;;;;5055775;28;20192;-82
2021/09/22 15:01:11;;;;;;;7.70;7.00;;;20.50;99.90;;;;;;5054431;28;20203;-82
2021/09/22 15:03:36;;;;;;;9.18;7.18;;;20.50;99.90;;;;;;5055985;28;20169;-82
2021/09/22 15:06:02;;;;;;;8.07;6.75;;;20.50;99.90;;;;;;5055721;28;20164;-83
2021/09/22 15:08:28;;;;;;;9.88;8.07;;;20.40;99.90;;;;;;5055676;28;20187;-83
2021/09/22 15:10:53;;;;;;;8.90;7.32;;;20.50;99.90;;;;;;5055586;28;20168;-82
2021/09/22 15:13:19;;;;;;;7.72;7.03;;;20.50;99.90;;;;;;5054345;28;20187;-83
2021/09/22 15:15:44;;;;;;;8.10;7.38;;;20.60;99.90;;;;;;5055652;28;20527;-82
2021/09/22 15:18:10;;;;;;;9.23;7.60;;;20.60;99.90;;;;;;5054230;28;20184;-82
2021/09/22 15:20:36;;;;;;;7.82;6.68;;;20.60;99.90;;;;;;5055397;28;20189;-82
2021/09/22 15:23:02;;;;;;;8.27;6.70;;;20.70;99.90;;;;;;5055366;28;20239;-82
2021/09/22 15:25:28;;;;;;;10.63;8.02;;;20.70;99.90;;;;;;5055351;28;20195;-82
2021/09/22 15:27:54;;;;;;;8.55;7.47;;;20.80;99.90;;;;;;5055313;28;20172;-83
2021/09/22 15:30:24;;;;;;;9.05;7.72;;;20.70;99.90;;;;;;5055016;28;20228;-82
2021/09/22 15:32:53;;;;;;;10.88;7.85;;;20.60;99.90;;;;;;5054053;28;20644;-81
2021/09/22 15:35:20;;;;;;;10.00;7.53;;;20.50;99.90;;;;;;5053897;28;20184;-82
2021/09/22 15:37:46;;;;;;;8.18;7.10;;;20.60;99.90;;;;;;5055155;28;20650;-81
2021/09/22 15:40:15;;;;;;;16.70;7.93;;;20.60;99.90;;;;;;5055150;28;20287;-81
2021/09/22 15:42:41;;;;;;;12.68;8.20;;;20.60;99.90;;;;;;5055155;28;20689;-81
2021/09/22 15:45:09;;;;;;;11.68;7.93;;;20.50;99.90;;;;;;5055016;28;20219;-82
2021/09/22 15:47:35;;;;;;;9.93;8.23;;;20.40;99.90;;;;;;5054962;28;20168;-81
2021/09/22 15:50:01;;;;;;;10.73;7.85;;;20.40;99.90;;;;;;5054860;28;20169;-81
2021/09/22 15:52:27;;;;;;;7.90;7.20;;;20.40;99.90;;;;;;5054837;28;20268;-81
2021/09/22 15:54:52;;;;;;;12.45;9.10;;;20.50;99.90;;;;;;5054790;28;20164;-81
2021/09/22 15:57:19;;;;;;;10.63;7.05;;;20.40;99.90;;;;;;5053327;28;20192;-81
2021/09/22 15:59:45;;;;;;;9.60;8.25;;;20.40;99.90;;;;;;5054731;28;20160;-81
2021/09/22 16:02:11;;;;;;;12.48;8.30;;;20.30;99.90;;;;;;5054630;28;20207;-81
2021/09/22 16:04:36;;;;;;;12.73;8.63;;;20.10;99.90;;;;;;5054645;28;20644;-81
2021/09/22 16:07:03;;;;;;;9.80;8.07;;;20.00;99.90;;;;;;5054580;28;20164;-81
2021/09/22 16:09:30;;;;;;;13.85;8.45;;;19.90;99.90;;;;;;5054543;28;20187;-81
2021/09/22 16:11:56;;;;;;;10.13;8.43;;;20.00;99.90;;;;;;5054377;28;20173;-81
2021/09/22 16:14:22;;;;;;;9.43;8.30;;;20.10;99.90;;;;;;5054436;28;20531;-81
2021/09/22 16:16:48;;;;;;;10.73;8.13;;;20.00;99.90;;;;;;5054384;28;20171;-81
2021/09/22 16:19:14;;;;;;;8.82;7.95;;;20.10;99.90;;;;;;5054495;28;20211;-82
2021/09/22 16:21:40;;;;;;;10.55;8.25;;;20.10;99.90;;;;;;5052884;28;20215;-81
2021/09/22 16:24:06;;;;;;;9.88;7.43;;;19.90;99.90;;;;;;5052944;28;20176;-82
2021/09/22 16:26:32;;;;;;;8.07;6.95;;;19.80;99.90;;;;;;5054140;28;20649;-81
2021/09/22 16:28:58;;;;;;;12.23;7.65;;;19.70;99.90;;;;;;5054137;28;20192;-81
2021/09/22 16:31:23;;;;;;;8.07;7.28;;;19.60;99.90;;;;;;5053920;28;20220;-81
2021/09/22 16:33:49;;;;;;;15.70;6.97;;;19.60;99.90;;;;;;5054080;28;20234;-81
2021/09/22 16:36:15;;;;;;;8.18;6.47;;;19.60;99.90;;;;;;5054011;28;20251;-81
2021/09/22 16:38:41;;;;;;;6.65;6.05;;;19.50;99.90;;;;;;5054005;28;20650;-81
2021/09/22 16:41:07;;;;;;;8.85;6.45;;;19.60;99.90;;;;;;5051942;28;20199;-81
2021/09/22 16:43:32;;;;;;;7.80;6.68;;;19.50;99.90;;;;;;5053929;28;20173;-81
2021/09/22 16:45:59;;;;;;;8.25;5.38;;;19.30;99.90;;;;;;5052544;28;20172;-81
2021/09/22 16:48:24;;;;;;;9.50;6.93;;;19.20;99.90;;;;;;5054153;28;20210;-81
2021/09/22 16:50:51;;;;;;;7.53;6.50;;;19.10;99.90;;;;;;5053618;28;20244;-81
2021/09/22 16:53:18;;;;;;;8.35;7.10;;;19.00;99.90;;;;;;5053671;28;20248;-81
2021/09/22 16:55:44;;;;;;;8.93;6.07;;;18.80;99.90;;;;;;5053832;28;20203;-84
2021/09/22 16:58:09;;;;;;;11.18;6.72;;;18.60;99.90;;;;;;5052288;28;20196;-82
2021/09/22 17:00:36;;;;;;;7.57;6.07;;;18.50;99.90;;;;;;5052121;28;20211;-81
2021/09/22 17:03:01;;;;;;;10.77;6.88;;;18.40;99.90;;;;;;5052184;28;20229;-81
2021/09/22 17:05:28;;;;;;;9.48;7.82;;;18.20;99.90;;;;;;5053393;28;20196;-81
2021/09/22 17:07:59;;;;;;;11.30;8.40;;;18.00;99.90;;;;;;5053356;28;20243;-81
2021/09/22 17:10:25;;;;;;;8.32;5.70;;;17.90;99.90;;;;;;5053363;28;20161;-81
2021/09/22 17:12:51;;;;;;;5.65;5.25;;;17.70;99.90;;;;;;5053374;28;20188;-81
2021/09/22 17:15:18;;;;;;;9.07;5.97;;;17.50;99.90;;;;;;5053321;28;20173;-81
2021/09/22 17:17:43;;;;;;;8.25;5.95;;;17.20;99.90;;;;;;5053264;28;20196;-81
2021/09/22 17:20:10;;;;;;;6.90;6.22;;;16.90;99.90;;;;;;5053153;28;20200;-81
2021/09/22 17:22:37;;;;;;;6.75;6.15;;;16.80;99.90;;;;;;5051894;28;20183;-81
2021/09/22 17:25:04;;;;;;;7.65;6.93;;;16.60;99.90;;;;;;5053196;28;20200;-81
2021/09/22 17:27:29;;;;;;;12.07;7.65;;;16.50;99.90;;;;;;5053127;28;20169;-81
2021/09/22 17:29:55;;;;;;;11.15;7.70;;;16.30;99.90;;;;;;5052854;28;20165;-81
2021/09/22 17:32:21;;;;;;;13.98;8.10;;;16.30;99.90;;;;;;5053412;28;20215;-81
2021/09/22 17:34:46;;;;;;;12.70;8.93;;;16.00;99.90;;;;;;5053123;28;20230;-80
